Time;durP1;ratioP1;P1;durP2;ratioP2;P2;SDS_P1;SDS_P2;PMS_P1;PMS_P2;Temp;Humidity;BMP_temperature;BMP_pressure;BME280_temperature;BME280_humidity;BME280_pressure;Samples;Min_cycle;Max_cycle;Signal;HPM_P1;HPM_P2
2023/05/03 00:02:43;;;;;;;16.95;12.43;;;;;;;13.29;100.00;100102.03;4492770;31;34191;-81
2023/05/03 00:05:32;;;;;;;13.85;11.10;;;;;;;13.76;100.00;100098.78;4482704;31;34306;-81
2023/05/03 00:08:18;;;;;;;17.00;12.25;;;;;;;13.20;100.00;100095.63;4477214;31;33874;-82
2023/05/03 00:11:05;;;;;;;15.75;12.00;;;;;;;13.39;100.00;100103.69;4467882;31;34594;-81
2023/05/03 00:13:51;;;;;;;17.10;11.68;;;;;;;13.19;100.00;100094.03;4474505;31;33720;-81
2023/05/03 00:16:38;;;;;;;17.27;11.93;;;;;;;13.14;100.00;100102.41;4489100;31;33293;-80
2023/05/03 00:19:28;;;;;;;17.02;12.23;;;;;;;13.23;100.00;100097.75;4489461;31;34839;-81
2023/05/03 00:22:17;;;;;;;17.15;12.80;;;;;;;13.13;100.00;100106.31;4494367;31;34148;-81
2023/05/03 00:25:04;;;;;;;19.08;13.13;;;;;;;12.56;100.00;100099.50;4490107;31;34443;-81
2023/05/03 00:27:50;;;;;;;17.03;13.50;;;;;;;13.27;100.00;100118.06;4480239;31;33197;-81
2023/05/03 00:30:37;;;;;;;17.33;12.90;;;;;;;12.82;100.00;100105.16;4488953;31;33503;-80
2023/05/03 00:33:23;;;;;;;19.07;13.23;;;;;;;13.15;100.00;100101.28;4480330;31;34136;-81
2023/05/03 00:36:14;;;;;;;17.75;13.50;;;;;;;12.82;100.00;100096.09;4468821;31;33214;-81
2023/05/03 00:39:00;;;;;;;16.98;12.23;;;;;;;13.41;100.00;100102.25;4482476;31;34205;-81
2023/05/03 00:41:47;;;;;;;16.62;12.85;;;;;;;13.36;100.00;100099.62;4482046;31;33783;-81
2023/05/03 00:44:33;;;;;;;16.00;12.55;;;;;;;13.12;100.00;100100.00;4486457;31;33775;-81
2023/05/03 00:47:19;;;;;;;15.67;12.77;;;;;;;12.96;100.00;100102.34;4479754;31;34220;-81
2023/05/03 00:50:07;;;;;;;16.33;13.15;;;;;;;13.12;100.00;100112.91;4490687;31;34202;-81
2023/05/03 00:52:53;;;;;;;16.80;12.93;;;;;;;12.86;100.00;100113.59;4481603;31;33421;-81
2023/05/03 00:55:41;;;;;;;16.77;12.73;;;;;;;13.00;100.00;100122.56;4489906;31;33798;-81
2023/05/03 00:58:27;;;;;;;16.40;12.88;;;;;;;13.27;100.00;100118.06;4492470;31;34487;-81
2023/05/03 01:01:14;;;;;;;16.92;12.30;;;;;;;13.36;100.00;100115.34;4489673;31;34270;-81
2023/05/03 01:04:01;;;;;;;16.80;12.23;;;;;;;13.53;100.00;100109.88;4467686;31;33870;-80
2023/05/03 01:06:57;;;;;;;17.40;13.27;;;;;;;13.45;100.00;100125.25;4478955;31;34093;-81
2023/05/03 01:09:55;;;;;;;16.60;12.25;;;;;;;13.97;100.00;100124.56;4468617;31;33348;-81
2023/05/03 01:12:57;;;;;;;18.50;13.48;;;;;;;13.39;100.00;100114.69;4494045;31;34235;-81
2023/05/03 01:15:48;;;;;;;16.77;12.07;;;;;;;13.41;100.00;100128.97;4482175;31;33917;-82
2023/05/03 01:18:38;;;;;;;16.30;11.98;;;;;;;14.31;100.00;100126.53;4477064;31;33694;-81
2023/05/03 01:21:24;;;;;;;15.10;11.48;;;;;;;14.42;100.00;100106.91;4480256;31;33276;-81
2023/05/03 01:24:18;;;;;;;14.93;11.50;;;;;;;15.03;100.00;100105.72;4466840;31;33291;-82
2023/05/03 01:27:04;;;;;;;15.73;11.05;;;;;;;14.69;100.00;100095.56;4481361;31;33475;-82
2023/05/03 01:29:51;;;;;;;13.93;10.95;;;;;;;14.56;100.00;100096.56;4494236;31;34105;-82
2023/05/03 01:32:59;;;;;;;13.38;10.50;;;;;;;15.34;100.00;100087.22;4490776;31;33770;-82
2023/05/03 01:35:56;;;;;;;17.00;12.05;;;;;;;14.52;100.00;100098.34;4484470;31;33391;-82
2023/05/03 01:38:42;;;;;;;15.23;11.85;;;;;;;13.60;100.00;100110.22;4495687;31;33971;-82
2023/05/03 01:41:30;;;;;;;15.48;11.40;;;;;;;14.52;100.00;100101.13;4467122;31;33928;-82
2023/05/03 01:44:17;;;;;;;17.48;11.40;;;;;;;15.05;100.00;100086.06;4488270;31;32381;-81
2023/05/03 01:47:05;;;;;;;14.25;10.50;;;;;;;14.80;100.00;100090.53;4488532;31;34101;-82
2023/05/03 01:49:51;;;;;;;15.00;11.48;;;;;;;15.18;100.00;100085.03;4487695;31;34848;-82
2023/05/03 01:52:39;;;;;;;14.55;10.52;;;;;;;15.58;100.00;100081.91;4485564;31;34096;-82
2023/05/03 01:55:25;;;;;;;14.23;11.50;;;;;;;15.54;100.00;100080.97;4498697;31;33381;-82
2023/05/03 01:58:11;;;;;;;14.03;11.07;;;;;;;14.93;100.00;100081.22;4500083;31;33663;-82
2023/05/03 02:00:58;;;;;;;13.85;10.90;;;;;;;15.39;100.00;100070.50;4485167;31;33928;-82
2023/05/03 02:03:44;;;;;;;13.13;9.98;;;;;;;15.62;100.00;100069.03;4481823;31;35139;-82
2023/05/03 02:06:30;;;;;;;15.00;10.90;;;;;;;16.01;100.00;100067.03;4481294;31;34120;-82
2023/05/03 02:09:17;;;;;;;13.68;10.57;;;;;;;16.00;100.00;100059.91;4494695;31;33560;-82
2023/05/03 02:12:04;;;;;;;15.50;11.80;;;;;;;15.42;100.00;100056.00;4482525;31;34351;-82
2023/05/03 02:14:50;;;;;;;13.73;10.90;;;;;;;15.06;100.00;100065.62;4482656;31;33968;-82
2023/05/03 02:17:38;;;;;;;14.13;10.17;;;;;;;15.91;100.00;100059.16;4494394;31;33812;-82
2023/05/03 02:20:24;;;;;;;12.93;10.40;;;;;;;16.02;100.00;100056.78;4479755;31;33835;-82
2023/05/03 02:23:10;;;;;;;14.47;10.67;;;;;;;16.19;100.00;100054.72;4496076;31;34039;-82
2023/05/03 02:25:57;;;;;;;13.70;10.13;;;;;;;15.84;100.00;100047.81;4482049;31;34082;-82
2023/05/03 02:28:43;;;;;;;14.13;10.52;;;;;;;16.33;100.00;100050.81;4493068;31;33446;-82
2023/05/03 02:31:30;;;;;;;12.37;9.60;;;;;;;15.79;100.00;100054.34;4480499;31;33894;-82
2023/05/03 02:34:17;;;;;;;12.27;9.55;;;;;;;16.32;100.00;100050.03;4492025;31;32819;-82
2023/05/03 02:37:03;;;;;;;12.90;11.23;;;;;;;16.25;100.00;100043.41;4490905;31;32630;-82
2023/05/03 02:39:51;;;;;;;11.80;9.60;;;;;;;15.99;100.00;100038.91;4482413;31;33689;-82
2023/05/03 02:42:39;;;;;;;13.18;10.90;;;;;;;16.51;100.00;100035.69;4490472;31;33085;-82
2023/05/03 02:45:26;;;;;;;18.47;12.40;;;;;;;15.89;100.00;100042.09;4480766;31;33090;-82
2023/05/03 02:48:12;;;;;;;16.47;12.00;;;;;;;14.79;100.00;100055.78;4495800;31;34121;-82
2023/05/03 02:50:59;;;;;;;18.37;13.38;;;;;;;15.04;100.00;100048.56;4494126;31;33804;-82
2023/05/03 02:53:45;;;;;;;15.32;11.75;;;;;;;14.51;100.00;100047.88;4480322;31;33326;-82
2023/05/03 02:56:32;;;;;;;15.75;11.95;;;;;;;14.95;100.00;100045.84;4493101;31;33823;-82
2023/05/03 02:59:18;;;;;;;15.18;10.82;;;;;;;15.52;100.00;100045.41;4480551;31;36654;-82
2023/05/03 03:02:05;;;;;;;14.45;10.93;;;;;;;15.78;100.00;100040.87;4492533;31;34919;-82
2023/05/03 03:04:52;;;;;;;14.32;10.85;;;;;;;15.92;100.00;100033.13;4468891;31;34135;-82
2023/05/03 03:07:39;;;;;;;14.67;10.90;;;;;;;16.06;100.00;100030.91;4469244;31;34815;-82
2023/05/03 03:10:25;;;;;;;15.07;11.20;;;;;;;16.11;100.00;100033.47;4481974;31;33616;-82
2023/05/03 03:13:12;;;;;;;16.87;12.35;;;;;;;15.16;100.00;100037.63;4492990;31;34573;-83
2023/05/03 03:15:58;;;;;;;14.73;11.57;;;;;;;15.54;100.00;100034.03;4481257;31;33382;-83
2023/05/03 03:18:45;;;;;;;13.85;10.98;;;;;;;15.44;100.00;100032.44;4493945;31;34447;-82
2023/05/03 03:21:34;;;;;;;12.95;10.20;;;;;;;16.24;100.00;100031.56;4490720;31;34130;-82
2023/05/03 03:24:21;;;;;;;14.13;10.63;;;;;;;16.37;100.00;100026.91;4481506;31;33089;-82
2023/05/03 03:27:08;;;;;;;14.65;10.82;;;;;;;16.48;100.00;100030.84;4492212;31;32155;-82
2023/05/03 03:29:55;;;;;;;12.98;10.15;;;;;;;16.11;100.00;100032.66;4496043;31;34121;-82
2023/05/03 03:32:41;;;;;;;14.27;11.27;;;;;;;16.10;100.00;100031.84;4493395;31;34159;-82
2023/05/03 03:35:29;;;;;;;15.77;11.18;;;;;;;16.31;100.00;100039.31;4483618;31;33640;-82
2023/05/03 03:38:15;;;;;;;14.85;11.32;;;;;;;16.14;100.00;100043.84;4489763;31;33294;-82
2023/05/03 03:41:02;;;;;;;16.47;13.00;;;;;;;15.82;100.00;100036.28;4492189;31;33964;-82
2023/05/03 03:43:49;;;;;;;18.12;13.25;;;;;;;14.95;100.00;100045.84;4471859;31;32036;-82
2023/05/03 03:46:36;;;;;;;15.83;12.70;;;;;;;15.30;100.00;100042.91;4495679;31;34606;-82
2023/05/03 03:49:23;;;;;;;14.90;10.70;;;;;;;15.94;100.00;100039.94;4495830;31;33257;-82
2023/05/03 03:52:09;;;;;;;14.93;11.70;;;;;;;16.28;100.00;100039.97;4483706;31;34388;-81
2023/05/03 03:54:55;;;;;;;15.47;11.33;;;;;;;15.79;100.00;100053.53;4475381;31;35158;-82
2023/05/03 03:57:43;;;;;;;15.87;11.67;;;;;;;16.22;100.00;100049.63;4482853;31;34367;-81
2023/05/03 04:00:29;;;;;;;16.17;12.93;;;;;;;15.94;100.00;100055.72;4491012;31;34032;-81
2023/05/03 04:03:17;;;;;;;15.07;11.20;;;;;;;15.13;100.00;100057.63;4494862;31;34762;-80
2023/05/03 04:06:03;;;;;;;15.17;11.50;;;;;;;15.84;100.00;100056.12;4491448;31;33813;-80
2023/05/03 04:08:50;;;;;;;15.45;10.75;;;;;;;16.43;100.00;100061.47;4490828;31;33380;-81
2023/05/03 04:11:36;;;;;;;15.43;11.82;;;;;;;16.42;100.00;100059.84;4491287;31;33385;-81
2023/05/03 04:14:23;;;;;;;17.12;12.98;;;;;;;15.74;100.00;100068.38;4476548;31;34331;-81
2023/05/03 04:17:11;;;;;;;15.93;11.60;;;;;;;15.69;100.00;100077.66;4486068;31;34131;-81
2023/05/03 04:19:58;;;;;;;15.10;10.65;;;;;;;15.01;100.00;100085.09;4483433;31;32463;-81
2023/05/03 04:22:44;;;;;;;14.25;10.45;;;;;;;15.90;100.00;100082.41;4476696;31;32910;-81
2023/05/03 04:25:31;;;;;;;14.80;10.43;;;;;;;15.70;100.00;100084.78;4490833;31;33945;-81
2023/05/03 04:28:19;;;;;;;16.80;10.73;;;;;;;14.78;100.00;100085.31;4492466;31;34091;-81
2023/05/03 04:31:05;;;;;;;20.95;11.63;;;;;;;15.19;100.00;100096.88;4491001;31;34608;-81
2023/05/03 04:33:52;;;;;;;16.33;11.07;;;;;;;14.82;100.00;100094.56;4483032;31;34296;-82
2023/05/03 04:36:41;;;;;;;16.67;11.15;;;;;;;15.09;100.00;100100.03;4490027;31;33456;-83
2023/05/03 04:39:27;;;;;;;22.15;13.18;;;;;;;14.13;100.00;100109.19;4493699;31;34050;-83
2023/05/03 04:42:14;;;;;;;18.60;13.77;;;;;;;13.73;100.00;100127.75;4488310;31;33691;-83
2023/05/03 04:45:08;;;;;;;16.80;11.77;;;;;;;13.84;100.00;100137.34;4486769;31;34280;-83
2023/05/03 04:47:55;;;;;;;17.37;11.18;;;;;;;15.02;100.00;100117.06;4492052;31;33424;-83
2023/05/03 04:50:41;;;;;;;16.37;12.13;;;;;;;15.54;100.00;100114.13;4493442;31;35074;-82
2023/05/03 04:53:28;;;;;;;18.90;12.93;;;;;;;14.12;100.00;100120.56;4486762;31;32306;-82
2023/05/03 04:56:19;;;;;;;17.48;13.07;;;;;;;13.67;100.00;100137.31;4488676;31;33362;-83
2023/05/03 04:59:06;;;;;;;15.90;12.75;;;;;;;14.09;100.00;100140.47;4494112;31;33723;-82
2023/05/03 05:01:52;;;;;;;16.08;12.02;;;;;;;15.07;100.00;100128.75;4477702;31;35140;-82
2023/05/03 05:04:38;;;;;;;20.15;12.82;;;;;;;14.72;100.00;100138.25;4491374;31;33765;-79
2023/05/03 05:07:26;;;;;;;19.07;13.27;;;;;;;14.09;100.00;100151.50;4500590;31;33399;-77
2023/05/03 05:10:19;;;;;;;17.05;13.20;;;;;;;14.43;100.00;100145.22;4499312;31;34030;-81
2023/05/03 05:13:06;;;;;;;15.90;11.70;;;;;;;14.54;100.00;100148.47;4495921;31;32687;-82
2023/05/03 05:15:53;;;;;;;16.50;12.67;;;;;;;14.12;100.00;100145.34;4487964;31;33338;-80
2023/05/03 05:18:40;;;;;;;18.10;13.18;;;;;;;14.15;100.00;100150.22;4490983;31;34189;-85
2023/05/03 05:21:28;;;;;;;14.40;11.45;;;;;;;14.43;100.00;100145.22;4474708;31;33656;-76
2023/05/03 05:24:15;;;;;;;16.55;13.13;;;;;;;13.66;100.00;100152.19;4479980;31;34131;-78
2023/05/03 05:27:03;;;;;;;18.55;13.75;;;;;;;13.91;100.00;100167.16;4487784;31;33752;-75
2023/05/03 05:29:49;;;;;;;19.37;13.95;;;;;;;13.36;100.00;100165.69;4489885;31;32923;-75
2023/05/03 05:32:36;;;;;;;20.92;16.15;;;;;;;13.54;100.00;100165.75;4489756;31;33815;-76
2023/05/03 05:35:22;;;;;;;22.70;17.98;;;;;;;13.58;100.00;100183.28;4473967;31;34625;-77
2023/05/03 05:38:09;;;;;;;18.52;14.73;;;;;;;13.66;100.00;100191.56;4482807;31;33713;-76
2023/05/03 05:40:56;;;;;;;19.35;15.27;;;;;;;13.55;100.00;100189.41;4473780;31;32955;-75
2023/05/03 05:43:42;;;;;;;19.05;15.32;;;;;;;13.40;100.00;100188.69;4481561;31;32803;-76
2023/05/03 05:46:28;;;;;;;18.27;15.00;;;;;;;13.81;100.00;100193.06;4473686;31;34045;-73
2023/05/03 05:49:18;;;;;;;18.55;14.25;;;;;;;13.31;100.00;100195.28;4498930;31;33949;-76
2023/05/03 05:52:04;;;;;;;18.83;12.73;;;;;;;13.47;100.00;100200.06;4470296;31;33302;-75
2023/05/03 05:54:51;;;;;;;16.17;11.43;;;;;;;13.33;100.00;100185.59;4494551;31;34737;-75
2023/05/03 05:57:37;;;;;;;14.97;10.57;;;;;;;13.73;100.00;100189.16;4498028;31;33640;-76
2023/05/03 06:00:24;;;;;;;14.98;10.95;;;;;;;13.97;100.00;100193.44;4489478;31;33762;-77
2023/05/03 06:03:11;;;;;;;16.00;11.27;;;;;;;14.18;100.00;100190.91;4501253;31;33430;-78
2023/05/03 06:05:58;;;;;;;15.77;11.43;;;;;;;13.83;100.00;100190.00;4501160;31;33774;-79
2023/05/03 06:08:44;;;;;;;16.37;11.00;;;;;;;14.37;100.00;100196.94;4486406;31;34167;-78
2023/05/03 06:11:32;;;;;;;13.45;10.40;;;;;;;13.92;100.00;100202.66;4470264;31;34162;-77
2023/05/03 06:14:19;;;;;;;13.30;9.97;;;;;;;13.86;100.00;100206.72;4478794;31;33175;-77
2023/05/03 06:17:06;;;;;;;11.95;8.90;;;;;;;15.02;100.00;100208.12;4473160;31;33795;-77
2023/05/03 06:19:52;;;;;;;11.52;9.85;;;;;;;14.85;100.00;100198.72;4487298;31;33865;-76
2023/05/03 06:22:39;;;;;;;13.80;10.45;;;;;;;14.43;100.00;100208.62;4485502;32;34665;-78
2023/05/03 06:25:25;;;;;;;14.43;11.02;;;;;;;13.92;100.00;100221.16;4477582;31;34246;-79
2023/05/03 06:28:11;;;;;;;17.60;12.05;;;;;;;13.92;100.00;100218.41;4501409;31;34788;-78
2023/05/03 06:30:58;;;;;;;16.30;11.38;;;;;;;14.15;100.00;100225.41;4495968;31;34232;-78
2023/05/03 06:33:48;;;;;;;12.83;10.03;;;;;;;14.46;100.00;100220.91;4500949;31;34581;-80
2023/05/03 06:36:34;;;;;;;12.93;10.13;;;;;;;15.00;100.00;100214.00;4488872;31;34363;-79
2023/05/03 06:39:21;;;;;;;13.38;10.10;;;;;;;15.18;100.00;100217.53;4485617;32;34819;-82
2023/05/03 06:42:08;;;;;;;12.20;10.20;;;;;;;14.30;100.00;100237.13;4487060;31;34211;-80
2023/05/03 06:44:55;;;;;;;13.03;10.63;;;;;;;14.54;100.00;100234.78;4500238;31;33847;-80
2023/05/03 06:47:42;;;;;;;13.40;9.90;;;;;;;14.76;100.00;100231.03;4493245;31;33352;-80
2023/05/03 06:50:28;;;;;;;12.73;9.90;;;;;;;15.06;100.00;100220.16;4487608;31;33893;-80
2023/05/03 06:53:15;;;;;;;13.33;9.27;;;;;;;15.41;100.00;100223.66;4487502;31;33713;-80
2023/05/03 06:56:02;;;;;;;12.30;9.40;;;;;;;15.38;100.00;100217.97;4489094;31;34526;-80
2023/05/03 06:58:49;;;;;;;11.88;9.13;;;;;;;14.38;100.00;100226.13;4493728;31;34259;-80
2023/05/03 07:01:35;;;;;;;11.70;8.75;;;;;;;14.58;100.00;100227.47;4489025;31;33938;-77
2023/05/03 07:04:22;;;;;;;13.43;9.07;;;;;;;15.50;100.00;100215.34;4501347;31;35008;-77
2023/05/03 07:07:08;;;;;;;12.73;8.27;;;;;;;14.82;100.00;100220.66;4485655;31;33835;-77
2023/05/03 07:09:54;;;;;;;11.73;8.50;;;;;;;15.15;100.00;100231.19;4472006;32;32882;-78
2023/05/03 07:12:41;;;;;;;11.60;8.82;;;;;;;15.71;100.00;100221.81;4485462;32;33862;-79
2023/05/03 07:15:27;;;;;;;12.35;9.25;;;;;;;15.05;100.00;100235.06;4486723;31;34155;-79
2023/05/03 07:18:14;;;;;;;14.07;9.20;;;;;;;14.80;100.00;100229.25;4501252;31;34583;-79
2023/05/03 07:21:04;;;;;;;14.68;10.13;;;;;;;14.62;100.00;100230.37;4489160;31;34313;-79
2023/05/03 07:23:53;;;;;;;11.70;9.35;;;;;;;14.78;100.00;100230.72;4490560;31;33818;-78
2023/05/03 07:26:39;;;;;;;11.37;9.00;;;;;;;14.41;100.00;100241.19;4501178;31;34332;-77
2023/05/03 07:29:28;;;;;;;13.57;9.75;;;;;;;14.95;100.00;100225.19;4500860;31;33744;-77
2023/05/03 07:32:15;;;;;;;11.10;8.32;;;;;;;14.68;100.00;100229.09;4500647;31;34300;-77
2023/05/03 07:35:02;;;;;;;11.45;8.77;;;;;;;15.52;100.00;100213.87;4501098;31;33852;-76
2023/05/03 07:37:48;;;;;;;9.63;6.60;;;;;;;15.70;100.00;100217.41;4503242;31;34214;-78
2023/05/03 07:40:35;;;;;;;10.60;7.32;;;;;;;15.66;100.00;100208.12;4484331;31;33708;-76
2023/05/03 07:43:22;;;;;;;9.93;7.20;;;;;;;16.12;100.00;100205.66;4495907;31;34360;-75
2023/05/03 07:46:08;;;;;;;10.00;6.78;;;;;;;16.00;100.00;100208.34;4492174;31;33899;-77
2023/05/03 07:48:54;;;;;;;10.88;7.20;;;;;;;15.93;100.00;100204.13;4493659;31;34171;-76
2023/05/03 07:51:50;;;;;;;11.60;7.75;;;;;;;15.99;100.00;100201.97;4488901;31;31627;-75
2023/05/03 07:54:36;;;;;;;9.95;7.00;;;;;;;16.01;100.00;100204.41;4494809;31;34181;-75
2023/05/03 07:57:23;;;;;;;9.07;6.50;;;;;;;16.41;100.00;100213.91;4481192;31;34675;-76
2023/05/03 08:00:11;;;;;;;9.50;7.23;;;;;;;16.59;100.00;100214.63;4500687;31;34172;-77
2023/05/03 08:02:57;;;;;;;10.23;7.37;;;;;;;16.21;100.00;100209.19;4489009;31;33858;-76
2023/05/03 08:05:44;;;;;;;12.70;7.97;;;;;;;16.13;100.00;100208.06;4501004;31;34349;-75
2023/05/03 08:08:31;;;;;;;11.95;8.27;;;;;;;16.36;100.00;100216.06;4500826;31;33801;-75
2023/05/03 08:11:17;;;;;;;9.70;7.53;;;;;;;16.04;100.00;100221.13;4500951;31;34347;-75
2023/05/03 08:14:04;;;;;;;9.18;7.18;;;;;;;16.74;100.00;100221.50;4500708;31;34531;-75
2023/05/03 08:16:51;;;;;;;9.52;7.00;;;;;;;16.85;100.00;100210.84;4474690;31;34137;-75
2023/05/03 08:19:37;;;;;;;10.10;6.90;;;;;;;17.02;100.00;100220.97;4491023;31;33807;-77
2023/05/03 08:22:25;;;;;;;10.65;7.65;;;;;;;17.56;100.00;100222.81;4485983;31;34184;-76
2023/05/03 08:25:12;;;;;;;12.27;8.05;;;;;;;17.14;100.00;100222.97;4491999;31;34244;-76
2023/05/03 08:27:58;;;;;;;9.70;7.45;;;;;;;16.98;100.00;100220.81;4493375;31;34284;-76
2023/05/03 08:30:44;;;;;;;11.35;7.70;;;;;;;16.58;100.00;100223.25;4482308;31;34797;-74
2023/05/03 08:33:31;;;;;;;9.43;6.57;;;;;;;16.71;100.00;100221.38;4497826;31;34122;-77
2023/05/03 08:36:17;;;;;;;9.65;6.30;;;;;;;16.76;100.00;100219.25;4490244;31;33898;-76
2023/05/03 08:39:06;;;;;;;8.70;6.85;;;;;;;17.57;100.00;100205.88;4499042;31;31388;-75
2023/05/03 08:41:53;;;;;;;9.90;7.32;;;;;;;17.41;100.00;100222.34;4487913;31;33851;-75
2023/05/03 08:44:49;;;;;;;8.88;6.28;;;;;;;17.68;100.00;100215.34;4483797;31;34128;-76
2023/05/03 08:47:37;;;;;;;8.30;6.13;;;;;;;17.73;100.00;100220.69;4488670;31;33681;-76
2023/05/03 08:50:24;;;;;;;8.07;5.68;;;;;;;17.81;100.00;100230.03;4492215;31;33237;-76
2023/05/03 08:53:11;;;;;;;8.95;6.00;;;;;;;17.76;100.00;100224.72;4493799;31;33978;-76
2023/05/03 08:55:57;;;;;;;9.10;6.28;;;;;;;18.26;100.00;100229.12;4491627;31;34334;-74
2023/05/03 08:58:44;;;;;;;8.93;6.40;;;;;;;18.40;100.00;100223.22;4480735;31;33684;-75
2023/05/03 09:01:30;;;;;;;9.52;6.55;;;;;;;18.56;100.00;100229.66;4495170;31;34262;-77
2023/05/03 09:04:17;;;;;;;10.27;6.50;;;;;;;18.80;100.00;100231.56;4500213;31;33976;-76
2023/05/03 09:07:10;;;;;;;11.27;7.20;;;;;;;18.94;100.00;100224.84;4499916;31;34246;-77
2023/05/03 09:09:59;;;;;;;9.75;6.95;;;;;;;17.62;100.00;100224.25;4499931;31;33697;-76
2023/05/03 09:12:45;;;;;;;10.30;6.80;;;;;;;16.93;100.00;100222.97;4500052;31;33413;-77
2023/05/03 09:15:32;;;;;;;9.60;6.45;;;;;;;17.09;100.00;100232.28;4499262;31;33912;-75
2023/05/03 09:18:19;;;;;;;9.50;6.78;;;;;;;17.31;100.00;100228.31;4487845;31;35110;-77
2023/05/03 09:21:06;;;;;;;11.70;6.63;;;;;;;16.96;100.00;100225.91;4499704;31;33695;-76
2023/05/03 09:23:52;;;;;;;8.02;6.30;;;;;;;17.12;100.00;100225.25;4494802;31;34225;-76
2023/05/03 09:26:39;;;;;;;9.38;6.15;;;;;;;16.95;100.00;100234.53;4481449;31;33865;-76
2023/05/03 09:29:31;;;;;;;8.57;5.57;;;;;;;17.09;100.00;100227.53;4499442;31;34101;-75
2023/05/03 09:32:17;;;;;;;8.85;5.50;;;;;;;17.52;100.00;100223.50;4487584;31;33693;-74
2023/05/03 09:35:08;;;;;;;9.93;5.68;;;;;;;18.14;100.00;100232.72;4487560;31;33215;-74
2023/05/03 09:37:55;;;;;;;8.45;5.80;;;;;;;18.01;100.00;100222.78;4492306;31;34648;-76
2023/05/03 09:40:45;;;;;;;9.50;6.00;;;;;;;18.55;100.00;100227.22;4494892;31;34186;-74
2023/05/03 09:43:33;;;;;;;8.75;5.82;;;;;;;17.73;100.00;100222.63;4488218;31;33719;-76
2023/05/03 09:46:20;;;;;;;9.07;5.03;;;;;;;16.76;100.00;100230.31;4476241;31;34171;-75
2023/05/03 09:49:06;;;;;;;7.43;5.15;;;;;;;17.19;100.00;100222.72;4464963;31;33836;-74
2023/05/03 09:51:53;;;;;;;7.22;5.00;;;;;;;17.86;100.00;100221.50;4467854;31;34219;-75
2023/05/03 09:54:41;;;;;;;7.82;5.40;;;;;;;17.64;100.00;100216.37;4462784;31;32563;-73
2023/05/03 09:57:28;;;;;;;8.52;5.50;;;;;;;17.49;100.00;100223.41;4474534;31;33355;-73
2023/05/03 10:00:16;;;;;;;10.02;5.53;;;;;;;17.20;100.00;100233.47;4472734;31;35019;-72
2023/05/03 10:03:07;;;;;;;7.20;5.20;;;;;;;17.86;100.00;100221.50;4462053;31;33548;-72
2023/05/03 10:05:53;;;;;;;7.60;5.53;;;;;;;17.47;100.00;100220.16;4483360;31;34361;-73
2023/05/03 10:08:41;;;;;;;8.57;5.32;;;;;;;17.82;100.00;100214.25;4471413;31;33206;-72
2023/05/03 10:11:28;;;;;;;8.48;5.65;;;;;;;18.50;100.00;100216.34;4471510;31;33447;-73
2023/05/03 10:14:15;;;;;;;8.00;5.57;;;;;;;18.27;100.00;100207.72;4481195;31;32542;-72
2023/05/03 10:17:07;;;;;;;8.93;6.07;;;;;;;18.02;100.00;100220.84;4483961;31;34646;-73
2023/05/03 10:20:06;;;;;;;7.70;5.72;;;;;;;17.90;100.00;100208.59;4476393;31;32915;-73
2023/05/03 10:23:04;;;;;;;8.48;5.30;;;;;;;18.38;100.00;100212.44;4480001;31;34647;-80
2023/05/03 10:26:08;;;;;;;9.40;5.80;;;;;;;18.61;100.00;100212.78;4494593;31;34130;-78
2023/05/03 10:28:54;;;;;;;8.90;5.90;;;;;;;17.72;100.00;100213.50;4501763;31;33804;-79
2023/05/03 10:31:45;;;;;;;8.25;6.07;;;;;;;17.91;100.00;100212.16;4501341;31;33549;-75
2023/05/03 10:34:34;;;;;;;12.25;6.20;;;;;;;18.25;100.00;100215.62;4463623;31;34773;-79
2023/05/03 10:37:25;;;;;;;7.85;5.80;;;;;;;18.01;100.00;100210.88;4476481;31;35153;-79
2023/05/03 10:40:14;;;;;;;8.88;5.72;;;;;;;18.45;100.00;100208.31;4462940;31;33868;-78
2023/05/03 10:43:00;;;;;;;7.00;5.60;;;;;;;18.08;100.00;100206.37;4469492;31;32898;-77
2023/05/03 10:45:50;;;;;;;9.27;5.90;;;;;;;18.02;100.00;100204.19;4470429;31;32008;-78
2023/05/03 10:48:36;;;;;;;8.00;5.90;;;;;;;17.85;100.00;100192.19;4486347;31;34299;-78
2023/05/03 10:51:29;;;;;;;9.02;6.00;;;;;;;18.90;100.00;100196.13;4487757;31;34381;-80
2023/05/03 10:54:18;;;;;;;9.15;5.87;;;;;;;17.91;100.00;100201.06;4485214;31;33252;-74
2023/05/03 10:57:04;;;;;;;8.15;5.80;;;;;;;18.03;100.00;100191.94;4480878;31;32827;-75
2023/05/03 10:59:51;;;;;;;9.20;5.65;;;;;;;17.85;100.00;100194.94;4467031;31;33550;-77
2023/05/03 11:03:09;;;;;;;7.85;5.50;;;;;;;18.40;100.00;100201.03;4469075;31;33571;-80
2023/05/03 11:05:56;;;;;;;8.80;5.75;;;;;;;18.13;100.00;100188.69;4499008;31;33593;-78
2023/05/03 11:08:47;;;;;;;7.25;5.30;;;;;;;17.95;100.00;100200.00;4485542;32;34728;-77
2023/05/03 11:11:35;;;;;;;8.23;5.28;;;;;;;18.20;100.00;100191.69;4485851;31;35182;-77
2023/05/03 11:14:21;;;;;;;6.65;4.97;;;;;;;18.17;100.00;100195.16;4487805;31;34594;-76
2023/05/03 11:17:08;;;;;;;7.90;4.87;;;;;;;18.14;100.00;100193.09;4488715;31;33216;-77
2023/05/03 11:19:54;;;;;;;7.83;5.07;;;;;;;18.41;100.00;100202.63;4498196;31;33890;-81
2023/05/03 11:22:41;;;;;;;8.63;5.30;;;;;;;19.10;100.00;100200.69;4477976;31;34724;-81
2023/05/03 11:25:27;;;;;;;7.85;5.60;;;;;;;19.43;100.00;100207.91;4490783;31;33974;-81
2023/05/03 11:28:15;;;;;;;8.70;6.07;;;;;;;20.15;100.00;100194.66;4494990;31;33570;-77
2023/05/03 11:31:01;;;;;;;9.00;5.68;;;;;;;18.71;100.00;100199.56;4495931;31;33797;-78
2023/05/03 11:33:49;;;;;;;8.73;6.32;;;;;;;19.15;100.00;100203.19;4472858;31;35151;-78
2023/05/03 11:36:35;;;;;;;7.95;6.30;;;;;;;17.99;100.00;100205.69;4478078;31;34676;-79
2023/05/03 11:39:22;;;;;;;9.18;6.78;;;;;;;18.50;100.00;100199.72;4480353;31;34114;-77
2023/05/03 11:42:08;;;;;;;9.47;6.60;;;;;;;17.68;100.00;100201.50;4489649;31;34897;-78
2023/05/03 11:44:55;;;;;;;8.40;6.18;;;;;;;17.48;100.00;100197.66;4477384;31;33835;-80
2023/05/03 11:47:41;;;;;;;8.77;6.28;;;;;;;17.28;100.00;100195.78;4484720;31;33696;-77
2023/05/03 11:50:49;;;;;;;7.68;6.07;;;;;;;17.53;100.00;100194.69;4488276;31;33258;-76
2023/05/03 11:53:40;;;;;;;7.97;5.90;;;;;;;17.57;100.00;100194.78;4480925;31;33753;-78
2023/05/03 11:56:26;;;;;;;7.62;5.78;;;;;;;17.34;100.00;100194.41;4487872;31;34287;-79
2023/05/03 11:59:13;;;;;;;9.05;6.05;;;;;;;17.17;100.00;100197.34;4481458;31;34607;-78
2023/05/03 12:02:02;;;;;;;9.00;7.20;;;;;;;17.11;100.00;100195.97;4485176;31;33308;-79
2023/05/03 12:04:49;;;;;;;8.95;6.10;;;;;;;16.88;100.00;100196.34;4473353;32;33710;-78
2023/05/03 12:07:37;;;;;;;8.77;6.40;;;;;;;17.74;100.00;100194.56;4497351;31;33778;-77
2023/05/03 12:10:31;;;;;;;8.70;6.65;;;;;;;17.52;100.00;100193.03;4473130;31;33810;-76
2023/05/03 12:13:34;;;;;;;8.60;7.00;;;;;;;16.89;100.00;100191.59;4479504;31;33302;-76
2023/05/03 12:16:27;;;;;;;9.15;6.45;;;;;;;16.49;100.00;100206.72;4493722;31;34822;-75
2023/05/03 12:19:28;;;;;;;8.73;6.20;;;;;;;16.83;100.00;100200.13;4481491;31;34014;-76
2023/05/03 12:22:18;;;;;;;8.20;6.40;;;;;;;16.90;100.00;100195.97;4483239;31;33591;-78
2023/05/03 12:25:11;;;;;;;8.38;5.97;;;;;;;16.70;100.00;100197.59;4480291;31;33643;-77
2023/05/03 12:28:03;;;;;;;8.90;5.80;;;;;;;16.67;100.00;100192.75;4495992;31;33979;-78
2023/05/03 12:30:52;;;;;;;7.75;5.70;;;;;;;16.48;100.00;100201.50;4476978;31;35048;-76
2023/05/03 12:33:39;;;;;;;7.45;5.87;;;;;;;16.23;100.00;100184.78;4450149;31;789470;-76
2023/05/03 12:36:31;;;;;;;7.85;5.22;;;;;;;16.39;100.00;100187.75;4493793;31;33804;-76
2023/05/03 12:39:22;;;;;;;7.90;5.65;;;;;;;16.76;100.00;100185.16;4483848;31;33789;-76
2023/05/03 12:42:12;;;;;;;8.23;4.97;;;;;;;16.54;100.00;100184.38;4479320;31;33518;-76